createdAt,value
2019-02-02T00:02:00.377Z,81.90
2019-02-02T00:04:26.726Z,82.00
2019-02-02T00:06:53.216Z,82.00
2019-02-02T00:09:22.419Z,82.10
2019-02-02T00:12:04.207Z,82.00
2019-02-02T00:14:30.800Z,82.10
2019-02-02T00:17:15.598Z,82.20
2019-02-02T00:19:41.783Z,82.20
2019-02-02T00:22:11.775Z,82.30
2019-02-02T00:24:38.189Z,82.20
2019-02-02T00:27:04.474Z,82.20
2019-02-02T00:29:30.784Z,82.20
2019-02-02T00:31:57.160Z,82.30
2019-02-02T00:34:23.370Z,82.30
2019-02-02T00:36:49.841Z,82.30
2019-02-02T00:39:25.367Z,82.40
2019-02-02T00:41:51.556Z,82.40
2019-02-02T00:44:17.988Z,82.40
2019-02-02T00:46:44.560Z,82.60
2019-02-02T00:49:11.031Z,82.70
2019-02-02T00:51:40.581Z,82.70
2019-02-02T00:54:07.554Z,82.70
2019-02-02T00:56:52.150Z,82.60
2019-02-02T00:59:18.332Z,82.70
2019-02-02T01:01:44.989Z,82.90
2019-02-02T01:04:11.291Z,82.80
2019-02-02T01:06:37.537Z,82.70
2019-02-02T01:09:12.936Z,82.70
2019-02-02T01:11:54.588Z,82.80
2019-02-02T01:14:20.776Z,82.90
2019-02-02T01:16:46.972Z,83.00
2019-02-02T01:19:19.244Z,83.10
2019-02-02T01:21:51.747Z,83.10
2019-02-02T01:24:18.023Z,83.60
2019-02-02T01:26:44.547Z,82.90
2019-02-02T01:29:10.835Z,83.00
2019-02-02T01:31:37.006Z,83.00
2019-02-02T01:34:03.280Z,83.00
2019-02-02T01:36:29.456Z,82.90
2019-02-02T01:38:55.645Z,82.90
2019-02-02T01:41:24.512Z,82.90
2019-02-02T01:43:50.712Z,82.90
2019-02-02T01:46:16.907Z,82.80
2019-02-02T01:48:43.068Z,82.80
2019-02-02T01:51:09.252Z,82.80
2019-02-02T01:53:35.421Z,83.00
2019-02-02T01:56:01.682Z,82.80
2019-02-02T01:58:27.864Z,82.90
2019-02-02T02:00:54.111Z,82.80
2019-02-02T02:03:20.372Z,82.90
2019-02-02T02:05:46.658Z,82.90
2019-02-02T02:08:12.942Z,82.90
2019-02-02T02:10:39.209Z,82.90
2019-02-02T02:13:05.504Z,82.80
2019-02-02T02:15:31.707Z,82.80
2019-02-02T02:17:57.907Z,82.80
2019-02-02T02:20:24.552Z,82.90
2019-02-02T02:22:53.688Z,82.80
2019-02-02T02:25:20.026Z,82.80
2019-02-02T02:27:46.714Z,82.80
2019-02-02T02:30:17.292Z,82.80
2019-02-02T02:32:43.562Z,82.80
2019-02-02T02:35:09.932Z,82.90
2019-02-02T02:37:36.164Z,83.10
2019-02-02T02:40:11.588Z,83.00
2019-02-02T02:42:37.763Z,83.00
2019-02-02T02:45:06.834Z,83.00
2019-02-02T02:47:32.988Z,83.10
2019-02-02T02:49:59.141Z,83.10
2019-02-02T02:52:25.461Z,83.20
2019-02-02T02:54:51.699Z,83.20
2019-02-02T02:57:17.922Z,83.10
2019-02-02T02:59:44.071Z,83.10
2019-02-02T03:02:10.416Z,83.90
2019-02-02T03:04:36.574Z,83.40
2019-02-02T03:07:03.635Z,83.30
2019-02-02T03:09:32.341Z,83.30
2019-02-02T03:11:58.583Z,83.30
2019-02-02T03:14:24.825Z,84.00
2019-02-02T03:16:51.213Z,83.40
2019-02-02T03:19:17.465Z,83.20
2019-02-02T03:21:44.110Z,83.30
2019-02-02T03:24:28.752Z,83.20
2019-02-02T03:26:54.960Z,83.40
2019-02-02T03:29:21.216Z,83.20
2019-02-02T03:31:48.664Z,83.40
2019-02-02T03:34:17.766Z,83.40
2019-02-02T03:36:43.937Z,83.30
2019-02-02T03:39:12.716Z,83.30
2019-02-02T03:41:38.978Z,83.50
2019-02-02T03:44:05.135Z,83.50
2019-02-02T03:46:31.288Z,83.50
2019-02-02T03:48:57.552Z,83.50
2019-02-02T03:51:29.936Z,83.50
2019-02-02T03:54:08.213Z,83.40
2019-02-02T03:56:27.077Z,83.40
2019-02-02T03:59:05.690Z,83.40
2019-02-02T04:01:21.543Z,83.50
2019-02-02T04:03:47.752Z,83.40
2019-02-02T04:06:14.019Z,83.60
2019-02-02T04:08:40.218Z,83.60
2019-02-02T04:11:06.458Z,83.70
2019-02-02T04:13:32.636Z,83.70
2019-02-02T04:15:58.827Z,83.50
2019-02-02T04:18:25.089Z,83.50
2019-02-02T04:20:51.249Z,83.40
2019-02-02T04:23:17.420Z,83.50
2019-02-02T04:25:43.616Z,83.60
2019-02-02T04:28:09.812Z,83.70
2019-02-02T04:30:36.086Z,83.70
2019-02-02T04:33:02.360Z,83.60
2019-02-02T04:35:40.858Z,83.40
2019-02-02T04:38:22.172Z,83.50
2019-02-02T04:40:51.005Z,83.70
2019-02-02T04:43:17.229Z,83.60
2019-02-02T04:45:43.566Z,83.50
2019-02-02T04:48:09.754Z,83.60
2019-02-02T04:50:38.907Z,83.60
2019-02-02T04:53:05.073Z,83.50
2019-02-02T04:55:31.250Z,83.60
2019-02-02T04:58:00.216Z,83.70
2019-02-02T05:00:26.886Z,83.60
2019-02-02T05:02:55.823Z,83.60
2019-02-02T05:05:22.209Z,83.40
2019-02-02T05:07:48.571Z,83.50
2019-02-02T05:10:30.104Z,83.20
2019-02-02T05:12:56.291Z,83.60
2019-02-02T05:15:22.586Z,83.60
2019-02-02T05:17:48.936Z,83.60
2019-02-02T05:20:16.833Z,83.70
2019-02-02T05:22:46.660Z,83.70
2019-02-02T05:25:13.224Z,83.50
2019-02-02T05:27:39.421Z,83.60
2019-02-02T05:30:24.120Z,83.50
2019-02-02T05:32:53.040Z,83.50
2019-02-02T05:35:19.271Z,83.40
2019-02-02T05:37:45.516Z,83.30
2019-02-02T05:40:14.089Z,83.40
2019-02-02T05:42:40.250Z,83.50
2019-02-02T05:45:09.356Z,83.50
2019-02-02T05:47:35.527Z,83.40
2019-02-02T05:50:02.821Z,83.30
2019-02-02T05:52:28.981Z,83.30
2019-02-02T05:54:55.151Z,83.40
2019-02-02T05:57:21.429Z,83.40
2019-02-02T05:59:52.968Z,83.40
2019-02-02T06:02:18.623Z,83.40
2019-02-02T06:04:44.781Z,83.40
2019-02-02T06:07:11.024Z,83.40
2019-02-02T06:09:37.191Z,83.50
2019-02-02T06:12:03.450Z,83.50
2019-02-02T06:14:29.607Z,83.40
2019-02-02T06:16:55.789Z,83.20
2019-02-02T06:19:21.962Z,83.20
2019-02-02T06:21:48.117Z,83.30
2019-02-02T06:24:14.276Z,83.40
2019-02-02T06:26:40.412Z,83.40
2019-02-02T06:29:09.203Z,83.40
2019-02-02T06:31:35.376Z,83.20
2019-02-02T06:34:01.550Z,83.30
2019-02-02T06:36:27.725Z,83.10
2019-02-02T06:38:54.163Z,83.10
2019-02-02T06:41:20.331Z,83.10
2019-02-02T06:43:46.484Z,83.10
2019-02-02T06:46:12.645Z,83.40
2019-02-02T06:48:57.367Z,83.30
2019-02-02T06:51:23.535Z,83.20
2019-02-02T06:53:49.763Z,83.20
2019-02-02T06:56:15.924Z,83.20
2019-02-02T06:58:42.168Z,83.10
2019-02-02T07:01:08.332Z,83.10
2019-02-02T07:03:34.529Z,83.00
2019-02-02T07:06:00.728Z,83.10
2019-02-02T07:08:27.047Z,83.10
2019-02-02T07:10:53.211Z,83.10
2019-02-02T07:13:19.482Z,83.00
2019-02-02T07:15:45.891Z,83.00
2019-02-02T07:18:14.675Z,83.00
2019-02-02T07:20:40.880Z,82.80
2019-02-02T07:23:09.903Z,82.90
2019-02-02T07:25:36.067Z,82.80
2019-02-02T07:28:02.765Z,83.10
2019-02-02T07:30:31.603Z,83.10
2019-02-02T07:32:57.873Z,83.10
2019-02-02T07:35:24.029Z,83.10
2019-02-02T07:37:50.276Z,82.90
2019-02-02T07:40:17.762Z,82.80
2019-02-02T07:42:46.596Z,82.80
2019-02-02T07:45:16.066Z,83.10
2019-02-02T07:48:01.165Z,83.10
2019-02-02T07:50:27.620Z,83.00
2019-02-02T07:52:56.629Z,82.90
2019-02-02T07:55:22.951Z,83.20
2019-02-02T07:58:07.766Z,83.10
2019-02-02T08:00:40.717Z,83.00
2019-02-02T08:03:04.910Z,83.00
2019-02-02T08:05:33.913Z,83.10
2019-02-02T08:08:00.256Z,83.00
2019-02-02T08:10:29.192Z,83.10
2019-02-02T08:12:55.440Z,83.10
2019-02-02T08:15:31.941Z,83.00
2019-02-02T08:18:16.805Z,83.00
2019-02-02T08:20:42.944Z,83.10
2019-02-02T08:23:09.097Z,83.00
2019-02-02T08:25:35.239Z,83.00
2019-02-02T08:28:21.809Z,83.10
2019-02-02T08:30:52.414Z,82.90
2019-02-02T08:33:16.371Z,83.10
2019-02-02T08:35:42.562Z,83.00
2019-02-02T08:38:08.832Z,83.00
2019-02-02T08:40:35.001Z,83.20
2019-02-02T08:43:19.678Z,83.30
2019-02-02T08:45:45.863Z,83.50
2019-02-02T08:48:12.189Z,83.60
2019-02-02T08:50:38.409Z,83.70
2019-02-02T08:53:05.117Z,83.90
2019-02-02T08:55:34.158Z,83.90
2019-02-02T08:58:03.840Z,83.90
2019-02-02T09:00:32.778Z,83.80
2019-02-02T09:03:17.472Z,84.00
2019-02-02T09:05:43.680Z,84.10
2019-02-02T09:08:10.124Z,83.90
2019-02-02T09:10:36.431Z,84.00
2019-02-02T09:13:03.181Z,84.30
2019-02-02T09:15:47.936Z,84.10
2019-02-02T09:18:14.241Z,84.00
2019-02-02T09:20:40.382Z,84.40
2019-02-02T09:23:09.970Z,84.30
2019-02-02T09:25:54.672Z,84.40
2019-02-02T09:28:20.918Z,84.60
2019-02-02T09:30:47.072Z,84.40
2019-02-02T09:33:13.375Z,84.50
2019-02-02T09:35:39.594Z,84.50
2019-02-02T09:38:05.877Z,84.70
2019-02-02T09:40:34.936Z,84.70
2019-02-02T09:43:01.123Z,84.80
2019-02-02T09:45:27.363Z,84.80
2019-02-02T09:48:12.113Z,84.90
2019-02-02T09:50:38.344Z,85.10
2019-02-02T09:53:04.511Z,84.80
2019-02-02T09:55:30.662Z,84.90
2019-02-02T09:58:00.093Z,85.10
2019-02-02T10:00:31.111Z,85.00
2019-02-02T10:02:57.488Z,84.80
2019-02-02T10:05:42.297Z,84.60
2019-02-02T10:08:08.465Z,84.70
2019-02-02T10:10:34.625Z,84.60
2019-02-02T10:13:00.990Z,84.70
2019-02-02T10:15:27.274Z,84.80
2019-02-02T10:17:53.685Z,84.90
2019-02-02T10:20:28.230Z,84.90
2019-02-02T10:22:55.215Z,84.90
2019-02-02T10:25:39.939Z,84.90
2019-02-02T10:28:06.215Z,84.80
2019-02-02T10:30:39.767Z,84.80
2019-02-02T10:33:24.552Z,85.10
2019-02-02T10:35:50.756Z,85.10
2019-02-02T10:38:20.004Z,85.10
2019-02-02T10:40:48.765Z,85.20
2019-02-02T10:43:33.182Z,85.00
2019-02-02T10:45:59.437Z,85.00
2019-02-02T10:48:25.718Z,85.10
2019-02-02T10:50:51.962Z,84.70
2019-02-02T10:53:18.180Z,85.20
2019-02-02T10:55:44.372Z,85.10
2019-02-02T10:58:10.534Z,84.90
2019-02-02T11:00:38.104Z,85.00
2019-02-02T11:03:23.002Z,85.10
2019-02-02T11:05:51.938Z,84.70
2019-02-02T11:08:20.942Z,85.10
2019-02-02T11:10:47.630Z,84.80
2019-02-02T11:13:29.156Z,85.10
2019-02-02T11:15:55.564Z,85.20
2019-02-02T11:18:21.859Z,85.10
2019-02-02T11:20:50.872Z,85.00
2019-02-02T11:23:20.058Z,84.80
2019-02-02T11:25:49.091Z,84.90
2019-02-02T11:28:15.344Z,85.00
2019-02-02T11:30:41.833Z,85.00
2019-02-02T11:33:20.271Z,85.20
2019-02-02T11:36:04.897Z,85.00
2019-02-02T11:38:31.089Z,85.10
2019-02-02T11:40:57.344Z,84.70
2019-02-02T11:43:23.552Z,84.90
2019-02-02T11:45:52.789Z,84.90
2019-02-02T11:48:19.057Z,85.20
2019-02-02T11:50:45.245Z,85.00
2019-02-02T11:53:11.402Z,85.10
2019-02-02T11:55:37.882Z,84.80
2019-02-02T11:58:06.845Z,84.80
2019-02-02T12:00:36.122Z,84.50
2019-02-02T12:03:21.002Z,85.50
2019-02-02T12:05:47.439Z,84.90
2019-02-02T12:08:32.017Z,84.70
2019-02-02T12:11:01.599Z,84.70
2019-02-02T12:13:27.866Z,84.90
2019-02-02T12:15:54.070Z,85.00
2019-02-02T12:18:20.230Z,85.10
2019-02-02T12:20:46.442Z,85.00
2019-02-02T12:23:12.634Z,84.90
2019-02-02T12:25:41.757Z,84.80
2019-02-02T12:28:09.320Z,84.90
2019-02-02T12:30:35.911Z,84.70
2019-02-02T12:33:03.811Z,84.80
2019-02-02T12:35:30.423Z,84.90
2019-02-02T12:37:56.874Z,85.00
2019-02-02T12:40:26.783Z,85.00
2019-02-02T12:43:14.597Z,84.70
2019-02-02T12:45:43.987Z,85.10
2019-02-02T12:48:13.015Z,85.20
2019-02-02T12:50:39.454Z,85.00
2019-02-02T12:53:08.364Z,85.10
2019-02-02T12:55:34.595Z,85.10
2019-02-02T12:58:00.933Z,85.30
2019-02-02T13:00:27.234Z,85.30
2019-02-02T13:02:56.372Z,85.10
2019-02-02T13:05:40.953Z,84.90
2019-02-02T13:08:07.235Z,85.10
2019-02-02T13:10:34.699Z,85.00
2019-02-02T13:13:01.169Z,85.30
2019-02-02T13:15:45.766Z,85.20
2019-02-02T13:18:11.975Z,85.20
2019-02-02T13:20:38.157Z,85.50
2019-02-02T13:23:10.422Z,85.50
2019-02-02T13:25:36.614Z,85.40
2019-02-02T13:28:03.225Z,85.10
2019-02-02T13:30:32.311Z,85.20
2019-02-02T13:32:58.609Z,85.30
2019-02-02T13:35:43.272Z,85.20
2019-02-02T13:38:09.498Z,85.10
2019-02-02T13:40:35.911Z,84.90
2019-02-02T13:43:02.120Z,85.30
2019-02-02T13:45:28.306Z,85.20
2019-02-02T13:47:57.404Z,85.30
2019-02-02T13:50:23.783Z,85.40
2019-02-02T13:52:52.751Z,85.70
2019-02-02T13:55:21.643Z,85.70
2019-02-02T13:57:47.828Z,85.50
2019-02-02T14:00:22.847Z,85.50
2019-02-02T14:03:02.785Z,85.50
2019-02-02T14:05:26.983Z,85.50
2019-02-02T14:08:12.026Z,85.30
2019-02-02T14:10:40.850Z,85.80
2019-02-02T14:13:25.482Z,85.20
2019-02-02T14:15:54.393Z,85.20
2019-02-02T14:18:20.572Z,85.20
2019-02-02T14:20:47.246Z,85.50
2019-02-02T14:23:15.978Z,85.50
2019-02-02T14:25:42.130Z,85.80
2019-02-02T14:28:08.330Z,85.90
2019-02-02T14:30:34.506Z,85.60
2019-02-02T14:33:00.693Z,85.50
2019-02-02T14:35:27.231Z,85.70
2019-02-02T14:37:56.169Z,85.70
2019-02-02T14:40:22.354Z,85.90
2019-02-02T14:42:51.420Z,85.60
2019-02-02T14:45:22.698Z,85.90
2019-02-02T14:48:04.427Z,85.90
2019-02-02T14:50:32.130Z,85.60
2019-02-02T14:53:16.554Z,85.40
2019-02-02T14:56:00.239Z,85.80
2019-02-02T14:58:26.406Z,85.80
2019-02-02T15:00:53.945Z,85.90
2019-02-02T15:03:29.536Z,85.90
2019-02-02T15:05:55.783Z,85.70
2019-02-02T15:08:21.950Z,85.50
2019-02-02T15:10:48.183Z,85.60
2019-02-02T15:13:14.386Z,85.60
2019-02-02T15:15:40.646Z,85.40
2019-02-02T15:18:07.619Z,85.50
2019-02-02T15:20:34.975Z,85.40
2019-02-02T15:23:01.176Z,85.70
2019-02-02T15:25:27.348Z,85.80
2019-02-02T15:27:53.536Z,85.90
2019-02-02T15:30:22.398Z,86.00
2019-02-02T15:32:48.706Z,86.10
2019-02-02T15:35:15.135Z,86.00
2019-02-02T15:37:44.205Z,85.90
2019-02-02T15:40:14.249Z,85.70
2019-02-02T15:42:40.407Z,85.50
2019-02-02T15:45:09.860Z,85.40
2019-02-02T15:47:38.757Z,85.80
2019-02-02T15:50:08.582Z,85.80
2019-02-02T15:52:34.886Z,85.80
2019-02-02T15:55:01.101Z,86.50
2019-02-02T15:57:27.273Z,85.60
2019-02-02T15:59:53.438Z,85.70
2019-02-02T16:02:22.196Z,85.60
2019-02-02T16:04:48.419Z,85.40
2019-02-02T16:07:14.760Z,85.40
2019-02-02T16:09:43.634Z,85.40
2019-02-02T16:12:09.867Z,85.60
2019-02-02T16:14:36.066Z,85.90
2019-02-02T16:17:02.508Z,85.90
2019-02-02T16:19:31.302Z,85.80
2019-02-02T16:21:57.473Z,85.70
2019-02-02T16:24:23.683Z,85.10
2019-02-02T16:26:52.475Z,85.70
2019-02-02T16:29:18.697Z,85.70
2019-02-02T16:31:44.880Z,85.70
2019-02-02T16:34:11.095Z,85.70
2019-02-02T16:36:37.337Z,85.90
2019-02-02T16:39:05.920Z,85.70
2019-02-02T16:41:35.647Z,85.60
2019-02-02T16:44:01.892Z,85.80
2019-02-02T16:46:28.236Z,85.70
2019-02-02T16:48:54.454Z,85.60
2019-02-02T16:51:20.680Z,85.50
2019-02-02T16:53:49.627Z,85.70
2019-02-02T16:56:15.790Z,85.70
2019-02-02T16:58:41.997Z,85.60
2019-02-02T17:01:11.013Z,85.60
2019-02-02T17:03:37.499Z,85.60
2019-02-02T17:06:22.555Z,85.70
2019-02-02T17:09:07.459Z,85.60
2019-02-02T17:11:33.721Z,85.60
2019-02-02T17:14:04.053Z,85.50
2019-02-02T17:16:45.751Z,85.40
2019-02-02T17:19:12.021Z,85.30
2019-02-02T17:21:56.568Z,85.30
2019-02-02T17:24:22.880Z,85.10
2019-02-02T17:26:49.048Z,85.00
2019-02-02T17:29:15.242Z,85.00
2019-02-02T17:31:41.452Z,84.90
2019-02-02T17:34:07.655Z,85.00
2019-02-02T17:36:33.920Z,85.20
2019-02-02T17:39:04.594Z,85.30
2019-02-02T17:41:31.008Z,84.80
2019-02-02T17:43:57.185Z,85.20
2019-02-02T17:46:23.498Z,85.20
2019-02-02T17:48:49.784Z,85.40
2019-02-02T17:51:18.740Z,85.50
2019-02-02T17:53:44.913Z,85.50
2019-02-02T17:56:11.112Z,85.50
2019-02-02T17:58:39.630Z,85.40
2019-02-02T18:01:08.345Z,85.40
2019-02-02T18:03:34.521Z,85.40
2019-02-02T18:06:00.707Z,85.40
2019-02-02T18:08:26.890Z,85.30
2019-02-02T18:10:53.187Z,85.60
2019-02-02T18:13:21.978Z,85.70
2019-02-02T18:15:48.165Z,85.70
2019-02-02T18:18:14.361Z,85.80
2019-02-02T18:20:40.526Z,85.80
2019-02-02T18:23:06.786Z,85.70
2019-02-02T18:25:32.982Z,85.80
2019-02-02T18:27:59.230Z,85.80
2019-02-02T18:30:28.459Z,85.50
2019-02-02T18:32:54.747Z,85.80
2019-02-02T18:35:21.030Z,85.80
2019-02-02T18:37:49.980Z,85.90
2019-02-02T18:40:22.943Z,85.90
2019-02-02T18:42:49.178Z,85.90
2019-02-02T18:45:17.950Z,85.90
2019-02-02T18:47:46.650Z,85.90
2019-02-02T18:50:16.694Z,85.90
2019-02-02T18:52:47.494Z,86.10
2019-02-02T18:55:19.559Z,85.80
2019-02-02T18:57:45.920Z,85.90
2019-02-02T19:00:14.970Z,85.80
2019-02-02T19:02:41.126Z,86.00
2019-02-02T19:05:10.887Z,86.00
2019-02-02T19:07:56.096Z,86.00
2019-02-02T19:10:31.642Z,86.00
2019-02-02T19:13:16.526Z,85.80
2019-02-02T19:16:02.031Z,85.90
2019-02-02T19:18:46.355Z,85.90
2019-02-02T19:21:31.608Z,85.90
2019-02-02T19:23:57.856Z,86.10
2019-02-02T19:26:27.078Z,86.10
2019-02-02T19:28:56.147Z,86.00
2019-02-02T19:31:22.348Z,86.00
2019-02-02T19:33:48.626Z,86.10
2019-02-02T19:36:14.808Z,86.10
2019-02-02T19:38:41.058Z,86.00
2019-02-02T19:41:07.249Z,86.00
2019-02-02T19:43:33.381Z,86.00
2019-02-02T19:45:59.736Z,86.10
2019-02-02T19:48:25.874Z,86.00
2019-02-02T19:50:52.050Z,86.10
2019-02-02T19:53:18.421Z,86.10
2019-02-02T19:55:47.250Z,86.20
2019-02-02T19:58:13.494Z,86.30
2019-02-02T20:00:39.715Z,86.40
2019-02-02T20:03:05.931Z,87.10
2019-02-02T20:05:51.122Z,86.20
2019-02-02T20:08:20.285Z,86.20
2019-02-02T20:10:46.606Z,86.10
2019-02-02T20:13:31.937Z,85.90
2019-02-02T20:16:17.075Z,86.10
2019-02-02T20:19:02.251Z,86.30
2019-02-02T20:21:31.378Z,86.50
2019-02-02T20:24:00.503Z,86.40
2019-02-02T20:26:26.773Z,86.60
2019-02-02T20:28:52.961Z,86.50
2019-02-02T20:31:21.787Z,86.20
2019-02-02T20:33:47.981Z,86.30
2019-02-02T20:36:14.145Z,86.30
2019-02-02T20:38:40.637Z,86.30
2019-02-02T20:41:25.340Z,86.30
2019-02-02T20:43:51.601Z,86.40
2019-02-02T20:46:17.898Z,86.40
2019-02-02T20:48:44.118Z,86.30
2019-02-02T20:51:10.351Z,86.20
2019-02-02T20:53:39.347Z,86.10
2019-02-02T20:56:05.774Z,86.10
2019-02-02T20:58:34.563Z,86.30
2019-02-02T21:01:00.957Z,86.30
2019-02-02T21:03:33.657Z,86.20
2019-02-02T21:05:59.899Z,86.10
2019-02-02T21:08:26.175Z,86.20
2019-02-02T21:10:52.358Z,86.20
2019-02-02T21:13:18.586Z,86.00
2019-02-02T21:15:44.827Z,86.20
2019-02-02T21:18:11.932Z,86.10
2019-02-02T21:20:38.535Z,86.10
2019-02-02T21:23:04.766Z,86.10
2019-02-02T21:25:31.159Z,86.20
2019-02-02T21:28:16.126Z,86.20
2019-02-02T21:30:42.343Z,86.20
2019-02-02T21:33:11.158Z,86.10
2019-02-02T21:35:39.889Z,86.00
2019-02-02T21:38:06.155Z,86.00
2019-02-02T21:40:33.335Z,86.00
2019-02-02T21:42:59.583Z,86.00
2019-02-02T21:45:44.216Z,86.00
2019-02-02T21:48:10.550Z,86.00
2019-02-02T21:50:36.708Z,85.90
2019-02-02T21:53:21.914Z,85.90
2019-02-02T21:55:51.315Z,85.70
2019-02-02T21:58:20.255Z,85.70
2019-02-02T22:00:49.062Z,85.70
2019-02-02T22:03:15.253Z,85.60
2019-02-02T22:05:41.451Z,85.70
2019-02-02T22:08:08.014Z,85.40
2019-02-02T22:10:36.877Z,85.40
2019-02-02T22:13:04.015Z,85.40
2019-02-02T22:15:30.180Z,85.30
2019-02-02T22:17:56.471Z,85.30
2019-02-02T22:20:22.632Z,85.20
2019-02-02T22:22:49.035Z,85.10
2019-02-02T22:25:33.829Z,85.00
2019-02-02T22:28:00.048Z,84.90
2019-02-02T22:30:34.476Z,84.80
2019-02-02T22:33:00.698Z,84.90
2019-02-02T22:35:29.511Z,84.90
2019-02-02T22:37:56.270Z,85.10
2019-02-02T22:40:24.727Z,85.20
2019-02-02T22:42:50.922Z,85.80
2019-02-02T22:45:18.627Z,85.40
2019-02-02T22:47:44.914Z,85.50
2019-02-02T22:50:17.104Z,85.70
2019-02-02T22:52:43.791Z,85.60
2019-02-02T22:55:12.042Z,85.70
2019-02-02T22:57:41.161Z,85.80
2019-02-02T23:00:14.916Z,86.10
2019-02-02T23:02:41.099Z,86.10
2019-02-02T23:05:15.503Z,86.10
2019-02-02T23:07:45.641Z,85.90
2019-02-02T23:10:18.436Z,85.90
2019-02-02T23:13:00.185Z,85.80
2019-02-02T23:15:51.796Z,86.20
2019-02-02T23:18:20.832Z,86.30
2019-02-02T23:20:47.105Z,86.40
2019-02-02T23:23:16.165Z,86.50
2019-02-02T23:25:57.774Z,86.40
2019-02-02T23:28:23.943Z,86.40
2019-02-02T23:30:50.197Z,86.40
2019-02-02T23:33:19.176Z,86.40
2019-02-02T23:35:45.427Z,86.30
2019-02-02T23:38:12.175Z,86.40
2019-02-02T23:40:38.411Z,86.30
2019-02-02T23:43:04.709Z,86.20
2019-02-02T23:45:30.882Z,86.30
2019-02-02T23:47:57.094Z,86.40
2019-02-02T23:50:23.277Z,86.30
2019-02-02T23:52:49.432Z,86.90
2019-02-02T23:55:21.940Z,86.60
2019-02-02T23:57:48.465Z,86.00
